Time;durP1;ratioP1;P1;durP2;ratioP2;P2;SDS_P1;SDS_P2;PMS_P1;PMS_P2;Temp;Humidity;BMP_temperature;BMP_pressure;BME280_temperature;BME280_humidity;BME280_pressure;Samples;Min_cycle;Max_cycle;Signal;HPM_P1;HPM_P2
2023/02/23 00:00:27;;;;;;;40.38;33.58;;;;;20.50;100103.00;;;;2069519;28;20214;-50
2023/02/23 00:01:28;;;;;;;39.38;34.88;;;;;19.90;100113.00;;;;2070349;28;20743;-50
2023/02/23 00:02:29;;;;;;;40.95;33.53;;;;;20.50;100106.00;;;;2069597;28;20324;-50
2023/02/23 00:03:29;;;;;;;39.37;34.83;;;;;20.50;100105.00;;;;2069633;28;20214;-53
2023/02/23 00:04:29;;;;;;;39.63;32.93;;;;;20.50;99996.00;;;;2070077;28;20760;-53
2023/02/23 00:05:31;;;;;;;36.47;31.17;;;;;20.50;100101.00;;;;2070393;28;20994;-53
2023/02/23 00:06:32;;;;;;;35.40;31.58;;;;;20.50;100102.00;;;;2069440;28;20210;-51
2023/02/23 00:07:33;;;;;;;36.90;32.45;;;;;20.50;100107.00;;;;2069442;28;20313;-51
2023/02/23 00:08:35;;;;;;;38.00;33.50;;;;;20.40;100107.00;;;;2069341;28;20225;-52
2023/02/23 00:09:35;;;;;;;39.17;31.80;;;;;20.50;100105.00;;;;2071834;28;20276;-49
2023/02/23 00:10:35;;;;;;;36.50;31.30;;;;;20.50;100104.00;;;;2078631;28;20272;-53
2023/02/23 00:11:36;;;;;;;36.90;31.30;;;;;20.50;100109.00;;;;2078312;28;20225;-51
2023/02/23 00:12:37;;;;;;;38.33;32.63;;;;;20.50;100108.00;;;;2077701;28;20340;-51
2023/02/23 00:13:38;;;;;;;34.47;29.47;;;;;20.50;100113.00;;;;2076981;28;21138;-53
2023/02/23 00:14:38;;;;;;;34.73;30.47;;;;;20.50;100107.00;;;;2078665;28;20251;-53
2023/02/23 00:15:39;;;;;;;37.37;30.70;;;;;20.50;100108.00;;;;2078475;28;20688;-50
2023/02/23 00:16:44;;;;;;;37.63;31.20;;;;;20.50;100108.00;;;;2078423;28;20232;-54
2023/02/23 00:17:46;;;;;;;33.72;29.15;;;;;20.50;100112.00;;;;2078213;28;20228;-53
2023/02/23 00:18:52;;;;;;;36.80;29.90;;;;;20.40;100113.00;;;;2076875;28;20218;-51
2023/02/23 00:19:54;;;;;;;34.67;29.50;;;;;20.50;100103.00;;;;2077672;28;20209;-52
2023/02/23 00:20:57;;;;;;;32.83;28.88;;;;;20.40;100104.00;;;;2077434;28;20226;-49
2023/02/23 00:21:57;;;;;;;33.83;30.30;;;;;20.50;100111.00;;;;2077284;28;20206;-51
2023/02/23 00:22:57;;;;;;;32.60;28.90;;;;;20.50;100100.00;;;;2078242;28;20223;-50
2023/02/23 00:24:02;;;;;;;33.50;29.87;;;;;20.40;100097.00;;;;2078309;28;20209;-51
2023/02/23 00:25:07;;;;;;;34.92;30.13;;;;;20.40;100099.00;;;;2077030;28;20213;-51
2023/02/23 00:26:07;;;;;;;31.65;26.90;;;;;20.40;100094.00;;;;2077595;28;21255;-53
2023/02/23 00:27:08;;;;;;;32.80;28.80;;;;;20.40;100103.00;;;;2078056;28;20214;-50
2023/02/23 00:28:08;;;;;;;33.40;29.80;;;;;20.40;100103.00;;;;2076614;28;20738;-50
2023/02/23 00:29:16;;;;;;;33.13;28.57;;;;;20.40;100086.00;;;;2078540;28;20673;-50
2023/02/23 00:30:17;;;;;;;31.75;28.33;;;;;20.40;100099.00;;;;2078550;28;20216;-51
2023/02/23 00:31:22;;;;;;;31.05;27.73;;;;;20.40;100096.00;;;;2078944;28;20255;-51
2023/02/23 00:32:22;;;;;;;30.45;26.38;;;;;20.40;100101.00;;;;2078836;28;20205;-51
2023/02/23 00:33:23;;;;;;;29.77;26.57;;;;;20.40;99952.00;;;;2078753;28;20216;-50
2023/02/23 00:34:23;;;;;;;31.77;27.83;;;;;20.40;100093.00;;;;2077249;28;20519;-50
2023/02/23 00:35:23;;;;;;;30.10;26.80;;;;;20.40;100098.00;;;;2076266;28;20653;-50
2023/02/23 00:36:34;;;;;;;33.13;29.40;;;;;20.40;100090.00;;;;2078880;28;20673;-50
2023/02/23 00:37:34;;;;;;;30.83;27.48;;;;;20.40;100101.00;;;;2078178;28;20217;-51
2023/02/23 00:38:35;;;;;;;29.40;26.30;;;;;20.40;100093.00;;;;2077728;28;20252;-50
2023/02/23 00:39:35;;;;;;;29.70;26.60;;;;;20.40;100095.00;;;;2078919;28;20228;-50
2023/02/23 00:40:39;;;;;;;29.50;26.37;;;;;20.40;100095.00;;;;2078376;28;20241;-51
2023/02/23 00:41:41;;;;;;;28.30;25.30;;;;;20.40;100092.00;;;;2078706;28;20224;-51
2023/02/23 00:42:44;;;;;;;29.80;26.60;;;;;20.40;100097.00;;;;2078629;28;20216;-51
2023/02/23 00:43:46;;;;;;;30.40;27.20;;;;;20.40;100097.00;;;;2078215;28;20294;-51
2023/02/23 00:44:47;;;;;;;29.23;25.90;;;;;20.40;100094.00;;;;2078257;28;20296;-51
2023/02/23 00:45:48;;;;;;;29.15;25.95;;;;;20.40;100088.00;;;;2078919;28;20241;-50
2023/02/23 00:46:50;;;;;;;29.40;25.33;;;;;20.30;100085.00;;;;2072480;28;20217;-51
2023/02/23 00:47:50;;;;;;;28.80;25.75;;;;;20.40;100094.00;;;;2085644;28;21019;-51
2023/02/23 00:48:51;;;;;;;29.30;26.20;;;;;20.40;100094.00;;;;2081899;28;20213;-51
2023/02/23 00:49:51;;;;;;;29.40;26.00;;;;;20.40;100091.00;;;;2078698;28;20213;-51
2023/02/23 00:51:01;;;;;;;29.30;26.10;;;;;20.30;100095.00;;;;2078306;28;20221;-51
2023/02/23 00:52:03;;;;;;;26.40;23.60;;;;;20.40;100089.00;;;;2078820;28;20289;-50
2023/02/23 00:53:03;;;;;;;29.77;24.95;;;;;20.30;100091.00;;;;2078990;28;20202;-51
2023/02/23 00:54:04;;;;;;;28.30;25.37;;;;;20.30;100088.00;;;;2078487;28;20669;-52
2023/02/23 00:55:07;;;;;;;28.57;25.33;;;;;20.30;100094.00;;;;2077405;28;20194;-50
2023/02/23 00:56:08;;;;;;;27.40;24.70;;;;;20.30;100088.00;;;;2078973;28;20576;-51
2023/02/23 00:57:09;;;;;;;28.83;25.40;;;;;20.30;100087.00;;;;2078730;28;20251;-51
2023/02/23 00:58:12;;;;;;;26.10;23.33;;;;;20.30;100090.00;;;;2076889;28;20701;-50
2023/02/23 00:59:13;;;;;;;26.08;23.40;;;;;20.30;100092.00;;;;2078441;28;20224;-51
2023/02/23 01:00:17;;;;;;;26.90;24.00;;;;;20.30;100090.00;;;;2078937;28;20240;-50
2023/02/23 01:01:17;;;;;;;27.17;24.27;;;;;20.30;100098.00;;;;2078588;28;20218;-50
2023/02/23 01:02:18;;;;;;;27.40;23.50;;;;;20.30;100093.00;;;;2078781;28;20225;-50
2023/02/23 01:03:18;;;;;;;27.57;23.77;;;;;20.30;100093.00;;;;2078782;28;20217;-50
2023/02/23 01:04:18;;;;;;;25.67;22.80;;;;;20.30;100092.00;;;;2078531;28;20221;-51
2023/02/23 01:05:20;;;;;;;27.20;24.40;;;;;20.30;100096.00;;;;2078578;28;20221;-53
2023/02/23 01:06:21;;;;;;;24.45;21.90;;;;;20.30;100093.00;;;;2078663;28;20217;-50
2023/02/23 01:07:24;;;;;;;27.17;23.63;;;;;20.30;100092.00;;;;2078832;28;20214;-50
2023/02/23 01:08:25;;;;;;;25.98;23.33;;;;;20.30;100092.00;;;;2077413;28;20206;-49
2023/02/23 01:09:28;;;;;;;24.88;22.25;;;;;20.30;100093.00;;;;2078529;28;20672;-51
2023/02/23 01:10:29;;;;;;;25.80;23.05;;;;;20.30;100118.00;;;;2078569;28;20225;-53
2023/02/23 01:11:32;;;;;;;27.50;24.70;;;;;20.30;100090.00;;;;2078678;28;20681;-52
2023/02/23 01:12:33;;;;;;;27.05;24.23;;;;;20.30;100089.00;;;;2078823;28;20233;-51
2023/02/23 01:13:33;;;;;;;27.43;24.53;;;;;20.30;100089.00;;;;2078085;28;20550;-53
2023/02/23 01:14:34;;;;;;;26.83;23.50;;;;;20.30;100093.00;;;;2078194;28;20213;-51
2023/02/23 01:15:41;;;;;;;25.67;22.93;;;;;20.30;100088.00;;;;2078438;28;20216;-51
2023/02/23 01:16:41;;;;;;;23.85;21.35;;;;;20.30;100086.00;;;;2078722;28;20448;-53
2023/02/23 01:17:41;;;;;;;24.50;22.00;;;;;20.20;100083.00;;;;2078695;28;20296;-51
2023/02/23 01:18:43;;;;;;;25.50;22.80;;;;;20.30;100092.00;;;;2077667;28;20205;-51
2023/02/23 01:19:43;;;;;;;25.38;22.77;;;;;20.20;100094.00;;;;2076644;28;20214;-52
2023/02/23 01:20:44;;;;;;;27.33;24.40;;;;;20.20;100084.00;;;;2078142;28;20236;-51
2023/02/23 01:21:44;;;;;;;24.67;22.07;;;;;20.20;100090.00;;;;2077974;28;20280;-50
2023/02/23 01:22:46;;;;;;;24.17;21.67;;;;;20.30;100086.00;;;;2077709;28;21006;-50
2023/02/23 01:23:46;;;;;;;23.13;20.63;;;;;20.30;100079.00;;;;2078114;28;20240;-50
2023/02/23 01:24:47;;;;;;;23.90;21.50;;;;;20.20;100090.00;;;;2078633;28;20214;-50
2023/02/23 01:25:48;;;;;;;25.13;21.97;;;;;20.20;100085.00;;;;2078414;28;20220;-51
2023/02/23 01:26:48;;;;;;;25.90;23.17;;;;;20.20;100091.00;;;;2078283;28;20236;-51
2023/02/23 01:27:48;;;;;;;23.30;20.80;;;;;20.20;100096.00;;;;2078393;28;20228;-52
2023/02/23 01:28:53;;;;;;;24.40;21.77;;;;;20.20;100091.00;;;;2077644;28;20217;-50
2023/02/23 01:29:54;;;;;;;24.65;22.02;;;;;20.30;100094.00;;;;2078455;28;20237;-49
2023/02/23 01:30:54;;;;;;;25.77;23.07;;;;;20.20;100090.00;;;;2078440;28;20228;-53
2023/02/23 01:31:54;;;;;;;24.13;21.73;;;;;20.20;100092.00;;;;2078175;28;20688;-51
2023/02/23 01:32:55;;;;;;;25.30;22.60;;;;;20.20;100093.00;;;;2078684;28;20214;-51
2023/02/23 01:33:56;;;;;;;24.30;21.73;;;;;20.20;100073.00;;;;2078443;28;20209;-51
2023/02/23 01:34:56;;;;;;;26.08;23.48;;;;;20.20;100088.00;;;;2077253;28;20244;-51
2023/02/23 01:35:58;;;;;;;23.97;21.50;;;;;20.20;100096.00;;;;2077833;28;20256;-51
2023/02/23 01:36:58;;;;;;;22.98;20.63;;;;;20.20;100095.00;;;;2078181;28;20267;-53
2023/02/23 01:37:58;;;;;;;24.90;22.40;;;;;20.20;100093.00;;;;2077415;28;20214;-52
2023/02/23 01:38:59;;;;;;;26.33;23.20;;;;;20.20;100094.00;;;;2077727;28;20393;-53
2023/02/23 01:39:59;;;;;;;24.47;21.90;;;;;20.20;100093.00;;;;2075894;28;20255;-51
2023/02/23 01:41:00;;;;;;;23.20;20.90;;;;;20.20;100119.00;;;;2077614;28;20229;-50
2023/02/23 01:42:00;;;;;;;22.97;20.57;;;;;20.20;100093.00;;;;2078016;28;20703;-53
2023/02/23 01:43:24;;;;;;;23.67;21.27;;;;;20.20;100093.00;;;;2078380;28;20708;-49
2023/02/23 01:44:25;;;;;;;24.65;22.15;;;;;20.20;100091.00;;;;2078461;28;20652;-52
2023/02/23 01:45:28;;;;;;;23.50;21.10;;;;;20.20;100090.00;;;;2078411;28;20300;-51
2023/02/23 01:46:42;;;;;;;23.45;20.95;;;;;20.20;100096.00;;;;2073651;28;20292;-52
2023/02/23 01:47:42;;;;;;;22.40;20.08;;;;;20.20;100093.00;;;;2077246;28;20216;-50
2023/02/23 01:48:43;;;;;;;23.50;21.00;;;;;20.20;100096.00;;;;2076744;28;20209;-52
2023/02/23 01:49:43;;;;;;;23.80;21.40;;;;;20.20;100104.00;;;;2069551;28;20241;-53
2023/02/23 01:51:04;;;;;;;23.07;20.67;;;;;20.20;100096.00;;;;2062497;28;20218;-50
2023/02/23 01:52:06;;;;;;;23.15;20.67;;;;;20.20;100089.00;;;;2077821;28;20308;-50
2023/02/23 01:53:07;;;;;;;23.40;20.95;;;;;20.20;100096.00;;;;2077688;28;20213;-50
2023/02/23 01:54:14;;;;;;;22.40;20.00;;;;;20.20;100101.00;;;;2069131;28;20256;-50
2023/02/23 01:55:21;;;;;;;22.58;20.27;;;;;20.10;100091.00;;;;2075688;28;20209;-50
2023/02/23 01:56:23;;;;;;;21.73;19.45;;;;;20.10;100097.00;;;;2068928;28;20311;-49
2023/02/23 01:57:25;;;;;;;22.17;19.73;;;;;20.10;100098.00;;;;2068788;28;20724;-50
2023/02/23 01:58:26;;;;;;;22.75;20.27;;;;;20.20;100092.00;;;;2075724;28;20210;-52
2023/02/23 01:59:40;;;;;;;22.20;19.90;;;;;20.20;100092.00;;;;2061300;28;20214;-49
2023/02/23 02:00:43;;;;;;;23.27;20.77;;;;;20.20;100098.00;;;;2056948;28;20701;-50
2023/02/23 02:01:44;;;;;;;24.08;21.63;;;;;20.10;100094.00;;;;2069844;28;20214;-51
2023/02/23 02:02:44;;;;;;;22.97;20.20;;;;;20.10;100086.00;;;;2077589;28;20209;-51
2023/02/23 02:03:47;;;;;;;22.93;20.53;;;;;19.80;100089.00;;;;2068526;28;20489;-51
2023/02/23 02:04:50;;;;;;;23.25;20.85;;;;;20.10;100082.00;;;;2068034;28;20243;-50
2023/02/23 02:05:51;;;;;;;22.73;20.33;;;;;20.10;100079.00;;;;2069288;28;20285;-50
2023/02/23 02:06:52;;;;;;;19.80;17.70;;;;;20.20;100092.00;;;;2061007;28;20230;-49
2023/02/23 02:07:57;;;;;;;21.50;19.30;;;;;20.10;100088.00;;;;2069028;28;20214;-50
2023/02/23 02:09:06;;;;;;;23.02;20.73;;;;;20.10;100089.00;;;;2078252;28;20237;-49
2023/02/23 02:11:35;;;;;;;21.02;18.60;;;;;20.10;100088.00;;;;2062001;28;20210;-51
2023/02/23 02:12:35;;;;;;;19.00;17.13;;;;;20.10;100083.00;;;;2077688;28;20240;-51
2023/02/23 02:13:36;;;;;;;21.77;19.57;;;;;20.10;100083.00;;;;2075887;28;20677;-52
2023/02/23 02:14:37;;;;;;;20.60;18.53;;;;;20.10;100084.00;;;;2077460;28;20460;-49
2023/02/23 02:15:52;;;;;;;22.23;19.80;;;;;20.10;100076.00;;;;2077388;28;20514;-50
2023/02/23 02:17:19;;;;;;;20.05;18.05;;;;;20.10;100085.00;;;;2069096;28;20222;-53
2023/02/23 02:18:29;;;;;;;20.48;18.48;;;;;20.10;100084.00;;;;2073622;28;20829;-50
2023/02/23 02:19:45;;;;;;;21.60;19.42;;;;;20.10;100085.00;;;;2070766;28;20229;-51
2023/02/23 02:20:56;;;;;;;22.27;20.13;;;;;20.10;100083.00;;;;2077022;28;20225;-51
2023/02/23 02:22:18;;;;;;;22.05;19.77;;;;;20.10;100081.00;;;;2069516;28;20318;-50
2023/02/23 02:23:40;;;;;;;20.90;18.70;;;;;20.10;100089.00;;;;2073145;28;20213;-53
2023/02/23 02:25:01;;;;;;;21.80;19.45;;;;;20.10;100107.00;;;;2069354;28;20229;-51
2023/02/23 02:26:26;;;;;;;19.23;17.33;;;;;20.10;100082.00;;;;2074102;28;20217;-51
2023/02/23 02:27:42;;;;;;;21.88;19.70;;;;;20.10;100089.00;;;;2076987;28;20248;-50
2023/02/23 02:28:46;;;;;;;19.38;17.38;;;;;20.10;100085.00;;;;2067315;28;20249;-51
2023/02/23 02:30:14;;;;;;;20.90;18.70;;;;;20.10;100086.00;;;;2062856;28;20686;-51
2023/02/23 02:31:31;;;;;;;21.48;19.27;;;;;20.10;100089.00;;;;2076821;28;20294;-49
2023/02/23 02:32:46;;;;;;;21.92;19.63;;;;;20.10;100082.00;;;;2076791;28;20888;-52
2023/02/23 02:34:01;;;;;;;20.50;18.27;;;;;20.00;100082.00;;;;2076307;28;20654;-51
2023/02/23 02:35:22;;;;;;;18.50;16.65;;;;;20.10;100080.00;;;;2077192;28;20217;-53
2023/02/23 02:36:56;;;;;;;21.15;18.85;;;;;20.10;100066.00;;;;2076201;28;20224;-51
2023/02/23 02:38:20;;;;;;;18.90;17.00;;;;;20.00;100078.00;;;;2072130;28;20225;-53
2023/02/23 02:40:15;;;;;;;19.73;17.80;;;;;20.00;100077.00;;;;2074070;28;20585;-52
2023/02/23 02:41:19;;;;;;;19.75;17.70;;;;;20.10;100079.00;;;;2077354;28;20223;-50
2023/02/23 02:42:32;;;;;;;19.25;17.33;;;;;20.10;100081.00;;;;2076821;28;20218;-53
2023/02/23 02:43:46;;;;;;;19.23;17.00;;;;;20.10;100080.00;;;;2052967;28;20215;-51
2023/02/23 02:45:06;;;;;;;21.05;18.90;;;;;20.10;100075.00;;;;2068415;28;20689;-51
2023/02/23 02:46:20;;;;;;;19.65;17.65;;;;;20.00;100073.00;;;;2059077;28;20207;-50
2023/02/23 02:47:59;;;;;;;20.67;18.50;;;;;20.00;100076.00;;;;2056362;28;20235;-51
2023/02/23 02:49:07;;;;;;;17.85;16.05;;;;;20.00;100076.00;;;;2075231;28;20225;-50
2023/02/23 02:50:14;;;;;;;20.63;18.52;;;;;20.00;100080.00;;;;2077415;28;20213;-49
2023/02/23 02:51:21;;;;;;;20.27;18.02;;;;;20.00;100081.00;;;;2077646;28;20200;-52
2023/02/23 02:52:34;;;;;;;20.33;18.27;;;;;20.00;100075.00;;;;2077478;28;20257;-49
2023/02/23 02:53:46;;;;;;;19.50;17.58;;;;;20.00;100081.00;;;;2062596;28;20227;-51
2023/02/23 02:54:55;;;;;;;20.27;18.25;;;;;20.00;100054.00;;;;2065418;28;20625;-50
2023/02/23 02:55:55;;;;;;;19.85;17.80;;;;;20.00;100052.00;;;;2070367;28;20280;-50
2023/02/23 02:56:57;;;;;;;19.60;17.23;;;;;20.00;100067.00;;;;2060313;28;20273;-50
2023/02/23 02:57:57;;;;;;;20.20;18.17;;;;;19.50;100070.00;;;;2051251;28;20227;-51
2023/02/23 02:59:00;;;;;;;19.80;17.70;;;;;20.00;100080.00;;;;2052256;28;20242;-50
2023/02/23 04:17:37;;;;;;;23.43;20.20;;;;;19.90;100085.00;;;;2062301;28;20578;-52
2023/02/23 04:18:38;;;;;;;19.77;17.77;;;;;19.80;100090.00;;;;2060809;28;20306;-52
2023/02/23 04:19:39;;;;;;;23.00;20.40;;;;;19.80;100093.00;;;;2062112;28;20253;-53
2023/02/23 04:20:39;;;;;;;21.00;18.73;;;;;19.80;100090.00;;;;2069651;28;20218;-50
2023/02/23 04:21:39;;;;;;;21.03;18.90;;;;;19.80;100091.00;;;;2078092;28;20468;-49
2023/02/23 04:22:40;;;;;;;21.47;19.17;;;;;19.80;100094.00;;;;2079160;28;20260;-50
2023/02/23 04:23:40;;;;;;;20.53;18.33;;;;;19.80;100093.00;;;;2079120;28;20244;-51
2023/02/23 04:24:40;;;;;;;20.60;18.47;;;;;19.80;100095.00;;;;2069901;28;20210;-52
2023/02/23 04:25:41;;;;;;;23.47;21.00;;;;;19.80;100091.00;;;;2070216;28;20722;-51
2023/02/23 04:26:41;;;;;;;22.03;19.67;;;;;19.80;100094.00;;;;2078893;28;20592;-51
2023/02/23 04:27:42;;;;;;;20.80;18.60;;;;;19.80;100096.00;;;;2078553;28;20228;-50
2023/02/23 04:28:42;;;;;;;20.50;18.40;;;;;19.80;100095.00;;;;2077895;28;20221;-51
2023/02/23 04:29:43;;;;;;;22.50;19.90;;;;;19.80;100094.00;;;;2078952;28;20218;-50
2023/02/23 04:30:43;;;;;;;21.20;19.00;;;;;19.80;100095.00;;;;2078283;28;20228;-51
2023/02/23 04:31:43;;;;;;;19.70;17.70;;;;;19.80;100096.00;;;;2078381;28;20259;-51
2023/02/23 04:32:44;;;;;;;20.63;18.47;;;;;19.80;100098.00;;;;2078117;28;20210;-51
2023/02/23 04:33:44;;;;;;;20.00;18.00;;;;;19.80;100096.00;;;;2078990;28;20695;-51
2023/02/23 04:34:45;;;;;;;21.43;19.07;;;;;19.80;100096.00;;;;2078884;28;20237;-51
2023/02/23 04:35:45;;;;;;;20.20;18.10;;;;;19.80;100107.00;;;;2078833;28;20213;-51
2023/02/23 04:36:46;;;;;;;19.33;17.40;;;;;19.80;100106.00;;;;2078836;28;20225;-51
2023/02/23 04:37:46;;;;;;;20.30;17.70;;;;;19.80;100108.00;;;;2078510;28;20233;-51
2023/02/23 04:38:46;;;;;;;20.70;18.47;;;;;19.80;100107.00;;;;2078191;28;20216;-51
2023/02/23 04:39:49;;;;;;;21.17;18.97;;;;;19.80;100108.00;;;;2077694;28;20241;-51
2023/02/23 04:40:50;;;;;;;20.90;18.58;;;;;19.80;100107.00;;;;2078846;28;20218;-51
2023/02/23 04:41:50;;;;;;;22.10;19.83;;;;;19.80;100111.00;;;;2078494;28;20232;-51
2023/02/23 04:42:50;;;;;;;20.73;18.63;;;;;19.80;100101.00;;;;2077897;28;20240;-51
2023/02/23 04:43:51;;;;;;;20.47;18.37;;;;;19.70;100104.00;;;;2078150;28;20307;-51
2023/02/23 04:44:51;;;;;;;20.63;18.53;;;;;19.80;100102.00;;;;2077265;28;20300;-51
2023/02/23 04:45:52;;;;;;;22.07;18.93;;;;;19.80;100097.00;;;;2079046;28;20217;-51
2023/02/23 04:46:52;;;;;;;20.07;17.97;;;;;19.80;100102.00;;;;2078540;28;20221;-51
2023/02/23 04:47:53;;;;;;;19.23;17.30;;;;;19.80;100109.00;;;;2078298;28;20293;-51
2023/02/23 04:48:53;;;;;;;21.37;19.07;;;;;19.80;100103.00;;;;2078396;28;20221;-51
2023/02/23 04:49:53;;;;;;;22.40;20.00;;;;;19.80;100102.00;;;;2078814;28;20228;-51
2023/02/23 04:50:54;;;;;;;21.80;19.50;;;;;19.80;100111.00;;;;2078478;28;20218;-51
2023/02/23 04:51:54;;;;;;;21.73;19.53;;;;;19.80;100101.00;;;;2078946;28;20217;-51
2023/02/23 04:52:55;;;;;;;20.43;18.33;;;;;19.70;100110.00;;;;2078791;28;20306;-51
2023/02/23 04:53:55;;;;;;;22.05;19.23;;;;;19.70;100097.00;;;;2075809;28;20213;-51
2023/02/23 04:54:56;;;;;;;19.50;17.57;;;;;19.70;100104.00;;;;2078604;28;20221;-51
2023/02/23 04:55:56;;;;;;;19.90;17.70;;;;;19.70;100103.00;;;;2077786;28;20220;-55
2023/02/23 04:56:56;;;;;;;18.60;16.70;;;;;19.80;100102.00;;;;2078385;28;20240;-55
2023/02/23 04:57:59;;;;;;;19.60;17.23;;;;;19.70;100112.00;;;;2076642;28;20224;-53
2023/02/23 04:58:59;;;;;;;22.60;20.20;;;;;19.70;100100.00;;;;2070051;28;20714;-51
2023/02/23 05:00:00;;;;;;;21.30;19.10;;;;;19.80;100109.00;;;;2078060;28;20210;-51
2023/02/23 05:01:05;;;;;;;23.92;18.67;;;;;19.80;100106.00;;;;2070412;28;20225;-51
2023/02/23 05:02:06;;;;;;;20.77;18.58;;;;;19.70;100104.00;;;;2078596;28;20220;-51
2023/02/23 05:03:06;;;;;;;22.30;19.70;;;;;19.70;100099.00;;;;2078848;28;20240;-50
2023/02/23 05:04:06;;;;;;;21.63;19.47;;;;;19.70;100115.00;;;;2078802;28;20284;-51
2023/02/23 05:05:08;;;;;;;21.13;18.73;;;;;19.70;100106.00;;;;2078447;28;20206;-51
2023/02/23 05:06:08;;;;;;;22.55;20.10;;;;;19.70;100107.00;;;;2078789;28;20209;-51
2023/02/23 05:07:08;;;;;;;20.43;18.00;;;;;19.70;100108.00;;;;2078813;28;20213;-50
2023/02/23 05:08:08;;;;;;;22.37;19.00;;;;;19.70;100111.00;;;;2077441;28;20245;-50
2023/02/23 05:09:09;;;;;;;21.10;18.90;;;;;19.70;100104.00;;;;2078818;28;20332;-51
2023/02/23 05:10:10;;;;;;;22.53;20.10;;;;;19.70;100112.00;;;;2078626;28;20210;-51
2023/02/23 05:11:10;;;;;;;21.40;18.83;;;;;19.70;100110.00;;;;2078617;28;20216;-51
2023/02/23 05:12:11;;;;;;;23.27;19.20;;;;;19.70;100107.00;;;;2078645;28;20452;-51
2023/02/23 05:13:11;;;;;;;24.47;20.73;;;;;19.70;100109.00;;;;2078408;28;20892;-50
2023/02/23 05:14:11;;;;;;;21.23;18.97;;;;;19.70;100113.00;;;;2078781;28;20689;-50
2023/02/23 05:15:12;;;;;;;24.43;21.10;;;;;19.70;100100.00;;;;2078957;28;20803;-51
2023/02/23 05:16:12;;;;;;;22.30;19.93;;;;;19.70;100118.00;;;;2078690;28;20216;-51
2023/02/23 05:17:12;;;;;;;24.03;21.53;;;;;19.70;100110.00;;;;2078903;28;20213;-50
2023/02/23 05:18:13;;;;;;;22.23;19.87;;;;;19.70;100118.00;;;;2077925;28;20236;-51
2023/02/23 05:19:13;;;;;;;25.50;21.63;;;;;19.70;100122.00;;;;2078618;28;20247;-51
2023/02/23 05:20:13;;;;;;;23.40;20.70;;;;;19.70;100110.00;;;;2078855;28;20847;-51
2023/02/23 05:21:14;;;;;;;21.70;19.47;;;;;19.70;100116.00;;;;2078515;28;20709;-51
2023/02/23 05:22:14;;;;;;;21.63;18.83;;;;;19.70;100105.00;;;;2078986;28;20209;-50
2023/02/23 05:23:14;;;;;;;24.50;21.67;;;;;19.70;100104.00;;;;2078937;28;20220;-51
2023/02/23 05:24:16;;;;;;;23.60;20.83;;;;;19.70;100110.00;;;;2078932;28;20232;-51
2023/02/23 05:25:16;;;;;;;24.92;20.98;;;;;19.70;100109.00;;;;2078637;28;20216;-50
2023/02/23 05:26:17;;;;;;;23.67;20.33;;;;;19.70;100107.00;;;;2078661;28;20201;-51
2023/02/23 05:27:17;;;;;;;22.95;19.63;;;;;19.70;100109.00;;;;2078216;28;20210;-51
2023/02/23 05:28:18;;;;;;;26.97;23.13;;;;;19.70;100114.00;;;;2077683;28;20405;-51
2023/02/23 05:29:18;;;;;;;22.10;19.80;;;;;19.70;100118.00;;;;2078904;28;20213;-51
2023/02/23 05:30:19;;;;;;;24.20;20.40;;;;;19.70;100117.00;;;;2078589;28;20764;-51
2023/02/23 05:31:19;;;;;;;24.83;21.23;;;;;19.70;100117.00;;;;2078822;28;20209;-51
2023/02/23 05:32:19;;;;;;;22.57;20.17;;;;;19.70;100127.00;;;;2078565;28;20213;-51
2023/02/23 05:33:20;;;;;;;23.43;21.00;;;;;19.70;100113.00;;;;2079082;28;20223;-51
2023/02/23 05:34:21;;;;;;;24.20;21.60;;;;;19.60;100114.00;;;;2078381;28;20214;-50
2023/02/23 05:35:21;;;;;;;22.50;20.20;;;;;19.70;100136.00;;;;2077928;28;20483;-51
2023/02/23 05:36:21;;;;;;;24.43;20.87;;;;;19.70;100113.00;;;;2078207;28;20304;-51
2023/02/23 05:37:22;;;;;;;23.97;20.43;;;;;19.60;100124.00;;;;2078298;28;20217;-52
2023/02/23 05:38:22;;;;;;;24.30;21.30;;;;;19.60;100115.00;;;;2077406;28;20221;-51
2023/02/23 05:39:23;;;;;;;22.40;19.23;;;;;19.60;100116.00;;;;2078517;28;20214;-50
2023/02/23 05:40:23;;;;;;;22.03;19.67;;;;;19.60;100115.00;;;;2078585;28;20303;-50
2023/02/23 05:41:23;;;;;;;23.97;19.70;;;;;19.60;100118.00;;;;2078310;28;20271;-51
2023/02/23 05:42:24;;;;;;;27.03;23.20;;;;;19.60;100116.00;;;;2078419;28;20217;-50
2023/02/23 05:43:24;;;;;;;24.93;20.97;;;;;19.70;100114.00;;;;2078448;28;20229;-51
2023/02/23 05:44:24;;;;;;;24.50;21.27;;;;;19.60;100118.00;;;;2078598;28;20216;-50
2023/02/23 05:45:25;;;;;;;24.30;20.87;;;;;19.70;100115.00;;;;2078105;28;20214;-50
2023/02/23 05:46:25;;;;;;;26.10;21.40;;;;;19.60;100114.00;;;;2078537;28;20213;-51
2023/02/23 05:47:25;;;;;;;23.40;20.47;;;;;19.70;100115.00;;;;2078553;28;20224;-50
2023/02/23 05:48:27;;;;;;;22.87;19.90;;;;;19.70;100117.00;;;;2077737;28;20241;-51
2023/02/23 05:49:27;;;;;;;28.15;22.67;;;;;19.70;100117.00;;;;2075963;28;20217;-51
2023/02/23 05:50:28;;;;;;;23.87;20.50;;;;;19.70;100103.00;;;;2078483;28;20639;-50
2023/02/23 05:51:29;;;;;;;23.73;21.27;;;;;19.60;100122.00;;;;2078380;28;20209;-51
2023/02/23 05:52:29;;;;;;;23.77;19.90;;;;;19.60;100151.00;;;;2076833;28;20214;-51
2023/02/23 05:53:30;;;;;;;24.20;21.60;;;;;19.60;100116.00;;;;2078205;28;20583;-50
2023/02/23 05:54:30;;;;;;;25.10;21.60;;;;;19.60;100124.00;;;;2076805;28;20749;-51
2023/02/23 05:55:30;;;;;;;25.90;22.80;;;;;19.70;100117.00;;;;2078235;28;20220;-51
2023/02/23 05:56:31;;;;;;;25.10;20.83;;;;;19.60;100114.00;;;;2078397;28;20213;-50
2023/02/23 05:57:31;;;;;;;23.57;20.63;;;;;19.60;100106.00;;;;2078231;28;20217;-51
2023/02/23 05:58:31;;;;;;;24.50;21.77;;;;;19.60;100116.00;;;;2077300;28;20233;-51
2023/02/23 05:59:32;;;;;;;25.60;22.57;;;;;19.60;100121.00;;;;2078255;28;20573;-51
2023/02/23 06:00:32;;;;;;;24.30;21.37;;;;;19.60;100122.00;;;;2078708;28;20214;-50
2023/02/23 06:01:33;;;;;;;24.80;20.87;;;;;19.60;100123.00;;;;2078301;28;20213;-51
2023/02/23 06:02:33;;;;;;;24.00;20.13;;;;;19.60;100123.00;;;;2078488;28;20213;-51
2023/02/23 06:03:34;;;;;;;22.70;19.67;;;;;19.70;100127.00;;;;2076302;28;20241;-51
2023/02/23 06:04:34;;;;;;;25.30;21.08;;;;;19.70;100123.00;;;;2077279;28;20216;-51
2023/02/23 06:05:35;;;;;;;21.37;18.97;;;;;19.70;100118.00;;;;2077447;28;20222;-51
2023/02/23 06:06:35;;;;;;;21.47;18.20;;;;;19.70;100127.00;;;;2077757;28;20234;-51
2023/02/23 06:07:36;;;;;;;22.00;19.70;;;;;19.80;100123.00;;;;2077461;28;20225;-51
2023/02/23 06:08:36;;;;;;;22.23;19.83;;;;;19.80;100125.00;;;;2077188;28;20236;-51
2023/02/23 06:09:36;;;;;;;23.00;19.73;;;;;19.90;100127.00;;;;2078093;28;21061;-51
2023/02/23 06:10:37;;;;;;;19.27;17.20;;;;;19.90;100127.00;;;;2077903;28;20965;-51
2023/02/23 06:11:37;;;;;;;20.57;18.40;;;;;19.90;100130.00;;;;2078285;28;20635;-51
2023/02/23 06:12:37;;;;;;;20.77;17.90;;;;;19.90;100125.00;;;;2077990;28;20759;-51
2023/02/23 06:13:39;;;;;;;18.53;16.27;;;;;20.00;100127.00;;;;2076990;28;20725;-55
2023/02/23 06:14:39;;;;;;;19.30;17.00;;;;;20.00;100138.00;;;;2077192;28;20240;-53
2023/02/23 06:15:40;;;;;;;20.23;17.40;;;;;20.00;100128.00;;;;2077387;28;20220;-51
2023/02/23 06:16:40;;;;;;;17.90;15.97;;;;;20.00;100139.00;;;;2078119;28;20220;-51
2023/02/23 06:17:40;;;;;;;17.50;15.67;;;;;20.00;100135.00;;;;2078186;28;20723;-51
2023/02/23 06:18:41;;;;;;;18.60;16.63;;;;;20.10;100132.00;;;;2077305;28;20286;-52
2023/02/23 06:19:41;;;;;;;17.80;15.70;;;;;20.10;100133.00;;;;2078200;28;20220;-51
2023/02/23 06:20:41;;;;;;;16.93;15.13;;;;;20.10;100134.00;;;;2077512;28;20217;-51
2023/02/23 06:21:42;;;;;;;18.23;15.77;;;;;20.10;100140.00;;;;2078077;28;20296;-50
2023/02/23 06:22:42;;;;;;;16.60;14.90;;;;;20.10;100134.00;;;;2078206;28;20250;-51
2023/02/23 06:23:42;;;;;;;15.70;14.00;;;;;20.10;100133.00;;;;2078135;28;20214;-51